Portada
METAR-TAF:

METAR-TAF

Aeroports :

Sandberg, Califòrnia, Estats Units d'Amèrica

latitud: 34-44-37N, longitud: 118-43-28W, altitud: 1378 m

Observació

L'informe es va fer fa 43 minuts, a les 20:51 UTC
Vent 5 kt amb direcció variable
Temperatura 29°C
Humitat 20%
Pressió 1019 hPa
Visibilitat: 14.5 km
Cel clar

METAR: KSDB 302051Z AUTO VRB05KT 9SM CLR 29/04 A3008 RMK AO2 SLP130 T02890039 58006

Hora: 14:34 (21:34 UTC)


TAF: manca

Observacions i pronòstics meteorològics de més de 4000 aeroports (METAR i TAF).

Les estacions disponibles són els punts grocs i vermells al mapa.

Posi el ratolí al punt desitjat per veure el nom de l'estació.

Feu clic per veure les observacions i els pronòstics meteorològics.

Per canviar el mapa: feu clic els botons verds amb una creu de color negre per apropar; al botó verd amb un guió per allunyar la imatge; o en les fletxes verdes per a mapes adjacents.


METAR-TAF: